sensor_id;sensor_type;location;lat;lon;timestamp;P1;durP1;ratioP1;P2;durP2;ratioP2
16705;SDS011;8469;60.136;15.180;2024-03-07T00:02:17;3.05;;;2.08;;
16705;SDS011;8469;60.136;15.180;2024-03-07T00:04:44;4.78;;;2.12;;
16705;SDS011;8469;60.136;15.180;2024-03-07T00:07:12;3.15;;;2.27;;
16705;SDS011;8469;60.136;15.180;2024-03-07T00:09:39;4.10;;;2.55;;
16705;SDS011;8469;60.136;15.180;2024-03-07T00:12:07;3.37;;;2.45;;
16705;SDS011;8469;60.136;15.180;2024-03-07T00:14:34;3.67;;;2.52;;
16705;SDS011;8469;60.136;15.180;2024-03-07T00:17:01;5.13;;;2.60;;
16705;SDS011;8469;60.136;15.180;2024-03-07T00:19:29;4.03;;;2.77;;
16705;SDS011;8469;60.136;15.180;2024-03-07T00:21:57;8.33;;;2.50;;
16705;SDS011;8469;60.136;15.180;2024-03-07T00:24:25;3.37;;;2.10;;
16705;SDS011;8469;60.136;15.180;2024-03-07T00:26:53;3.20;;;2.40;;
16705;SDS011;8469;60.136;15.180;2024-03-07T00:29:21;3.22;;;2.27;;
16705;SDS011;8469;60.136;15.180;2024-03-07T00:31:49;3.50;;;2.40;;
16705;SDS011;8469;60.136;15.180;2024-03-07T00:34:21;3.47;;;2.50;;
16705;SDS011;8469;60.136;15.180;2024-03-07T00:36:46;4.17;;;2.02;;
16705;SDS011;8469;60.136;15.180;2024-03-07T00:39:13;4.47;;;2.35;;
16705;SDS011;8469;60.136;15.180;2024-03-07T00:41:41;2.80;;;2.45;;
16705;SDS011;8469;60.136;15.180;2024-03-07T00:44:08;5.30;;;2.35;;
16705;SDS011;8469;60.136;15.180;2024-03-07T00:46:36;2.40;;;2.20;;
16705;SDS011;8469;60.136;15.180;2024-03-07T00:49:03;3.25;;;2.55;;
16705;SDS011;8469;60.136;15.180;2024-03-07T00:51:34;11.30;;;2.63;;
16705;SDS011;8469;60.136;15.180;2024-03-07T00:54:01;6.10;;;2.50;;
16705;SDS011;8469;60.136;15.180;2024-03-07T00:56:29;6.08;;;2.92;;
16705;SDS011;8469;60.136;15.180;2024-03-07T00:58:56;4.87;;;2.95;;
16705;SDS011;8469;60.136;15.180;2024-03-07T01:01:24;9.28;;;2.83;;
16705;SDS011;8469;60.136;15.180;2024-03-07T01:03:51;3.12;;;2.20;;
16705;SDS011;8469;60.136;15.180;2024-03-07T01:06:18;3.30;;;2.47;;
16705;SDS011;8469;60.136;15.180;2024-03-07T01:08:46;5.08;;;2.42;;
16705;SDS011;8469;60.136;15.180;2024-03-07T01:11:14;4.60;;;2.50;;
16705;SDS011;8469;60.136;15.180;2024-03-07T01:13:41;4.70;;;2.90;;
16705;SDS011;8469;60.136;15.180;2024-03-07T01:16:09;11.80;;;2.95;;
16705;SDS011;8469;60.136;15.180;2024-03-07T01:18:37;8.20;;;2.90;;
16705;SDS011;8469;60.136;15.180;2024-03-07T01:21:05;3.37;;;2.70;;
16705;SDS011;8469;60.136;15.180;2024-03-07T01:23:32;3.50;;;2.40;;
16705;SDS011;8469;60.136;15.180;2024-03-07T01:26:00;3.70;;;2.30;;
16705;SDS011;8469;60.136;15.180;2024-03-07T01:28:28;5.37;;;2.30;;
16705;SDS011;8469;60.136;15.180;2024-03-07T01:30:56;4.67;;;2.60;;
16705;SDS011;8469;60.136;15.180;2024-03-07T01:33:24;4.33;;;2.60;;
16705;SDS011;8469;60.136;15.180;2024-03-07T01:35:52;5.47;;;2.55;;
16705;SDS011;8469;60.136;15.180;2024-03-07T01:38:19;4.22;;;2.90;;
16705;SDS011;8469;60.136;15.180;2024-03-07T01:40:47;10.78;;;2.80;;
16705;SDS011;8469;60.136;15.180;2024-03-07T01:43:15;7.47;;;2.83;;
16705;SDS011;8469;60.136;15.180;2024-03-07T01:45:42;5.37;;;2.62;;
16705;SDS011;8469;60.136;15.180;2024-03-07T01:48:09;4.87;;;2.85;;
16705;SDS011;8469;60.136;15.180;2024-03-07T01:50:39;8.18;;;2.80;;
16705;SDS011;8469;60.136;15.180;2024-03-07T01:53:11;6.25;;;2.90;;
16705;SDS011;8469;60.136;15.180;2024-03-07T01:55:35;3.67;;;2.80;;
16705;SDS011;8469;60.136;15.180;2024-03-07T01:58:04;6.13;;;2.90;;
16705;SDS011;8469;60.136;15.180;2024-03-07T02:00:36;8.13;;;2.80;;
16705;SDS011;8469;60.136;15.180;2024-03-07T02:03:03;6.67;;;2.80;;
16705;SDS011;8469;60.136;15.180;2024-03-07T02:05:37;5.37;;;2.70;;
16705;SDS011;8469;60.136;15.180;2024-03-07T02:08:01;5.70;;;2.52;;
16705;SDS011;8469;60.136;15.180;2024-03-07T02:10:28;6.35;;;2.40;;
16705;SDS011;8469;60.136;15.180;2024-03-07T02:12:56;4.92;;;2.77;;
16705;SDS011;8469;60.136;15.180;2024-03-07T02:15:23;3.65;;;2.40;;
16705;SDS011;8469;60.136;15.180;2024-03-07T02:17:51;4.00;;;2.23;;
16705;SDS011;8469;60.136;15.180;2024-03-07T02:20:19;3.80;;;2.65;;
16705;SDS011;8469;60.136;15.180;2024-03-07T02:22:47;4.47;;;2.65;;
16705;SDS011;8469;60.136;15.180;2024-03-07T02:25:14;4.40;;;2.27;;
16705;SDS011;8469;60.136;15.180;2024-03-07T02:27:42;4.97;;;2.10;;
16705;SDS011;8469;60.136;15.180;2024-03-07T02:30:11;4.70;;;2.00;;
16705;SDS011;8469;60.136;15.180;2024-03-07T02:32:39;3.98;;;2.27;;
16705;SDS011;8469;60.136;15.180;2024-03-07T02:35:10;3.98;;;2.42;;
16705;SDS011;8469;60.136;15.180;2024-03-07T02:37:37;4.70;;;2.40;;
16705;SDS011;8469;60.136;15.180;2024-03-07T02:40:04;6.87;;;2.70;;
16705;SDS011;8469;60.136;15.180;2024-03-07T02:42:32;3.02;;;2.20;;
16705;SDS011;8469;60.136;15.180;2024-03-07T02:45:00;3.80;;;2.30;;
16705;SDS011;8469;60.136;15.180;2024-03-07T02:47:27;3.33;;;2.40;;
16705;SDS011;8469;60.136;15.180;2024-03-07T02:49:55;6.65;;;2.30;;
16705;SDS011;8469;60.136;15.180;2024-03-07T02:52:22;4.42;;;2.55;;
16705;SDS011;8469;60.136;15.180;2024-03-07T02:54:50;3.60;;;2.15;;
16705;SDS011;8469;60.136;15.180;2024-03-07T02:57:17;2.80;;;2.10;;
16705;SDS011;8469;60.136;15.180;2024-03-07T02:59:44;5.37;;;2.20;;
16705;SDS011;8469;60.136;15.180;2024-03-07T03:02:12;4.30;;;2.22;;
16705;SDS011;8469;60.136;15.180;2024-03-07T03:04:39;5.65;;;2.00;;
16705;SDS011;8469;60.136;15.180;2024-03-07T03:07:07;5.58;;;2.40;;
16705;SDS011;8469;60.136;15.180;2024-03-07T03:09:34;4.35;;;2.22;;
16705;SDS011;8469;60.136;15.180;2024-03-07T03:12:03;2.77;;;2.30;;
16705;SDS011;8469;60.136;15.180;2024-03-07T03:14:31;3.52;;;2.17;;
16705;SDS011;8469;60.136;15.180;2024-03-07T03:16:58;3.85;;;2.30;;
16705;SDS011;8469;60.136;15.180;2024-03-07T03:19:27;3.00;;;2.10;;
16705;SDS011;8469;60.136;15.180;2024-03-07T03:21:54;3.95;;;2.10;;
16705;SDS011;8469;60.136;15.180;2024-03-07T03:24:22;4.30;;;2.08;;
16705;SDS011;8469;60.136;15.180;2024-03-07T03:26:49;6.37;;;2.30;;
16705;SDS011;8469;60.136;15.180;2024-03-07T03:29:17;2.98;;;2.30;;
16705;SDS011;8469;60.136;15.180;2024-03-07T03:31:44;3.15;;;2.10;;
16705;SDS011;8469;60.136;15.180;2024-03-07T03:34:12;2.20;;;2.00;;
16705;SDS011;8469;60.136;15.180;2024-03-07T03:36:39;2.75;;;2.30;;
16705;SDS011;8469;60.136;15.180;2024-03-07T03:39:07;4.13;;;2.23;;
16705;SDS011;8469;60.136;15.180;2024-03-07T03:41:35;2.00;;;1.80;;
16705;SDS011;8469;60.136;15.180;2024-03-07T03:44:03;2.03;;;1.83;;
16705;SDS011;8469;60.136;15.180;2024-03-07T03:46:30;3.85;;;2.10;;
16705;SDS011;8469;60.136;15.180;2024-03-07T03:48:58;2.67;;;2.10;;
16705;SDS011;8469;60.136;15.180;2024-03-07T03:51:25;3.50;;;2.47;;
16705;SDS011;8469;60.136;15.180;2024-03-07T03:53:52;2.45;;;1.92;;
16705;SDS011;8469;60.136;15.180;2024-03-07T03:56:20;2.47;;;2.00;;
16705;SDS011;8469;60.136;15.180;2024-03-07T03:58:47;3.22;;;1.92;;
16705;SDS011;8469;60.136;15.180;2024-03-07T04:01:14;3.57;;;1.97;;
16705;SDS011;8469;60.136;15.180;2024-03-07T04:03:42;2.23;;;2.00;;
16705;SDS011;8469;60.136;15.180;2024-03-07T04:06:11;3.08;;;2.17;;
16705;SDS011;8469;60.136;15.180;2024-03-07T04:08:40;2.85;;;2.00;;
16705;SDS011;8469;60.136;15.180;2024-03-07T04:11:09;3.02;;;2.12;;
16705;SDS011;8469;60.136;15.180;2024-03-07T04:13:36;2.87;;;2.12;;
16705;SDS011;8469;60.136;15.180;2024-03-07T04:16:03;2.50;;;2.00;;
16705;SDS011;8469;60.136;15.180;2024-03-07T04:18:30;2.77;;;2.05;;
16705;SDS011;8469;60.136;15.180;2024-03-07T04:20:58;2.83;;;2.30;;
16705;SDS011;8469;60.136;15.180;2024-03-07T04:23:25;2.70;;;2.33;;
16705;SDS011;8469;60.136;15.180;2024-03-07T04:25:54;19.25;;;3.02;;
16705;SDS011;8469;60.136;15.180;2024-03-07T04:28:22;3.00;;;2.35;;
16705;SDS011;8469;60.136;15.180;2024-03-07T04:30:49;3.42;;;2.35;;
16705;SDS011;8469;60.136;15.180;2024-03-07T04:33:18;5.87;;;2.98;;
16705;SDS011;8469;60.136;15.180;2024-03-07T04:35:47;4.80;;;2.70;;
16705;SDS011;8469;60.136;15.180;2024-03-07T04:38:14;2.90;;;2.20;;
16705;SDS011;8469;60.136;15.180;2024-03-07T04:40:41;8.65;;;2.85;;
16705;SDS011;8469;60.136;15.180;2024-03-07T04:43:09;4.28;;;2.37;;
16705;SDS011;8469;60.136;15.180;2024-03-07T04:45:37;3.87;;;2.70;;
16705;SDS011;8469;60.136;15.180;2024-03-07T04:48:05;7.08;;;2.75;;
16705;SDS011;8469;60.136;15.180;2024-03-07T04:50:32;17.77;;;3.20;;
16705;SDS011;8469;60.136;15.180;2024-03-07T04:52:59;7.92;;;2.45;;
16705;SDS011;8469;60.136;15.180;2024-03-07T04:55:28;9.80;;;2.58;;
16705;SDS011;8469;60.136;15.180;2024-03-07T04:57:56;8.93;;;2.27;;
16705;SDS011;8469;60.136;15.180;2024-03-07T05:00:23;11.05;;;2.17;;
16705;SDS011;8469;60.136;15.180;2024-03-07T05:02:51;2.60;;;1.93;;
16705;SDS011;8469;60.136;15.180;2024-03-07T05:05:20;5.20;;;2.17;;
16705;SDS011;8469;60.136;15.180;2024-03-07T05:07:52;4.45;;;2.17;;
16705;SDS011;8469;60.136;15.180;2024-03-07T05:10:19;7.00;;;2.30;;
16705;SDS011;8469;60.136;15.180;2024-03-07T05:12:47;5.58;;;2.27;;
16705;SDS011;8469;60.136;15.180;2024-03-07T05:15:15;3.77;;;2.10;;
16705;SDS011;8469;60.136;15.180;2024-03-07T05:17:42;4.28;;;2.30;;
16705;SDS011;8469;60.136;15.180;2024-03-07T05:20:09;10.88;;;1.98;;
16705;SDS011;8469;60.136;15.180;2024-03-07T05:22:38;7.83;;;2.27;;
16705;SDS011;8469;60.136;15.180;2024-03-07T05:25:13;13.40;;;2.85;;
16705;SDS011;8469;60.136;15.180;2024-03-07T05:27:42;3.87;;;2.10;;
16705;SDS011;8469;60.136;15.180;2024-03-07T05:30:10;5.00;;;2.40;;
16705;SDS011;8469;60.136;15.180;2024-03-07T05:32:39;5.10;;;1.95;;
16705;SDS011;8469;60.136;15.180;2024-03-07T05:35:07;5.92;;;2.30;;
16705;SDS011;8469;60.136;15.180;2024-03-07T05:37:36;24.87;;;3.35;;
16705;SDS011;8469;60.136;15.180;2024-03-07T05:40:04;21.77;;;3.10;;
16705;SDS011;8469;60.136;15.180;2024-03-07T05:42:33;8.68;;;2.60;;
16705;SDS011;8469;60.136;15.180;2024-03-07T05:45:00;17.12;;;2.72;;
16705;SDS011;8469;60.136;15.180;2024-03-07T05:47:28;16.93;;;2.57;;
16705;SDS011;8469;60.136;15.180;2024-03-07T05:49:55;16.73;;;2.95;;
16705;SDS011;8469;60.136;15.180;2024-03-07T05:52:22;15.32;;;2.92;;
16705;SDS011;8469;60.136;15.180;2024-03-07T05:54:55;12.70;;;2.45;;
16705;SDS011;8469;60.136;15.180;2024-03-07T05:57:18;25.37;;;3.72;;
16705;SDS011;8469;60.136;15.180;2024-03-07T05:59:45;20.37;;;2.67;;
16705;SDS011;8469;60.136;15.180;2024-03-07T06:02:14;30.33;;;3.27;;
16705;SDS011;8469;60.136;15.180;2024-03-07T06:04:42;20.82;;;3.95;;
16705;SDS011;8469;60.136;15.180;2024-03-07T06:07:09;14.07;;;3.35;;
16705;SDS011;8469;60.136;15.180;2024-03-07T06:09:37;17.82;;;3.02;;
16705;SDS011;8469;60.136;15.180;2024-03-07T06:12:04;22.42;;;3.05;;
16705;SDS011;8469;60.136;15.180;2024-03-07T06:14:33;16.73;;;2.47;;
16705;SDS011;8469;60.136;15.180;2024-03-07T06:17:00;19.63;;;2.80;;
16705;SDS011;8469;60.136;15.180;2024-03-07T06:19:29;10.00;;;2.17;;
16705;SDS011;8469;60.136;15.180;2024-03-07T06:21:57;19.10;;;2.30;;
16705;SDS011;8469;60.136;15.180;2024-03-07T06:24:26;9.08;;;2.30;;
16705;SDS011;8469;60.136;15.180;2024-03-07T06:26:55;10.08;;;2.62;;
16705;SDS011;8469;60.136;15.180;2024-03-07T06:29:29;22.87;;;2.77;;
16705;SDS011;8469;60.136;15.180;2024-03-07T06:31:57;8.63;;;2.60;;
16705;SDS011;8469;60.136;15.180;2024-03-07T06:34:31;15.65;;;2.70;;
16705;SDS011;8469;60.136;15.180;2024-03-07T06:36:57;15.32;;;2.70;;
16705;SDS011;8469;60.136;15.180;2024-03-07T06:39:24;8.90;;;2.80;;
16705;SDS011;8469;60.136;15.180;2024-03-07T06:41:52;11.65;;;2.45;;
16705;SDS011;8469;60.136;15.180;2024-03-07T06:44:19;21.60;;;2.52;;
16705;SDS011;8469;60.136;15.180;2024-03-07T06:46:49;10.13;;;2.35;;
16705;SDS011;8469;60.136;15.180;2024-03-07T06:49:16;16.32;;;2.58;;
16705;SDS011;8469;60.136;15.180;2024-03-07T06:51:44;17.57;;;2.58;;
16705;SDS011;8469;60.136;15.180;2024-03-07T06:54:11;11.18;;;2.40;;
16705;SDS011;8469;60.136;15.180;2024-03-07T06:56:39;11.80;;;2.20;;
16705;SDS011;8469;60.136;15.180;2024-03-07T06:59:08;13.48;;;2.55;;
16705;SDS011;8469;60.136;15.180;2024-03-07T07:01:38;16.90;;;3.15;;
16705;SDS011;8469;60.136;15.180;2024-03-07T07:04:07;11.45;;;2.52;;
16705;SDS011;8469;60.136;15.180;2024-03-07T07:06:35;18.35;;;2.47;;
16705;SDS011;8469;60.136;15.180;2024-03-07T07:09:16;14.85;;;2.35;;
16705;SDS011;8469;60.136;15.180;2024-03-07T07:11:32;5.15;;;2.12;;
16705;SDS011;8469;60.136;15.180;2024-03-07T07:14:08;4.03;;;1.80;;
16705;SDS011;8469;60.136;15.180;2024-03-07T07:16:33;12.43;;;2.10;;
16705;SDS011;8469;60.136;15.180;2024-03-07T07:19:04;12.37;;;2.02;;
16705;SDS011;8469;60.136;15.180;2024-03-07T07:21:32;9.48;;;1.87;;
16705;SDS011;8469;60.136;15.180;2024-03-07T07:23:59;9.80;;;2.05;;
16705;SDS011;8469;60.136;15.180;2024-03-07T07:26:30;6.83;;;1.87;;
16705;SDS011;8469;60.136;15.180;2024-03-07T07:29:01;5.50;;;1.70;;
16705;SDS011;8469;60.136;15.180;2024-03-07T07:31:29;6.13;;;2.20;;
16705;SDS011;8469;60.136;15.180;2024-03-07T07:34:01;5.45;;;1.90;;
16705;SDS011;8469;60.136;15.180;2024-03-07T07:36:33;9.78;;;1.82;;
16705;SDS011;8469;60.136;15.180;2024-03-07T07:39:01;9.70;;;1.83;;
16705;SDS011;8469;60.136;15.180;2024-03-07T07:41:32;3.55;;;1.70;;
16705;SDS011;8469;60.136;15.180;2024-03-07T07:43:58;2.10;;;1.85;;
16705;SDS011;8469;60.136;15.180;2024-03-07T07:46:26;4.80;;;1.70;;
16705;SDS011;8469;60.136;15.180;2024-03-07T07:48:53;2.83;;;1.60;;
16705;SDS011;8469;60.136;15.180;2024-03-07T07:51:22;2.05;;;1.80;;
16705;SDS011;8469;60.136;15.180;2024-03-07T07:53:51;6.37;;;1.80;;
16705;SDS011;8469;60.136;15.180;2024-03-07T07:56:20;5.10;;;1.60;;
16705;SDS011;8469;60.136;15.180;2024-03-07T07:58:47;4.42;;;1.77;;
16705;SDS011;8469;60.136;15.180;2024-03-07T08:01:15;6.87;;;1.80;;
16705;SDS011;8469;60.136;15.180;2024-03-07T08:03:45;3.87;;;1.80;;
16705;SDS011;8469;60.136;15.180;2024-03-07T08:06:13;1.50;;;1.40;;
16705;SDS011;8469;60.136;15.180;2024-03-07T08:08:40;3.98;;;1.40;;
16705;SDS011;8469;60.136;15.180;2024-03-07T08:11:07;4.53;;;1.90;;
16705;SDS011;8469;60.136;15.180;2024-03-07T08:13:36;1.70;;;1.60;;
16705;SDS011;8469;60.136;15.180;2024-03-07T08:16:04;11.65;;;2.35;;
16705;SDS011;8469;60.136;15.180;2024-03-07T08:18:33;4.40;;;1.87;;
16705;SDS011;8469;60.136;15.180;2024-03-07T08:21:02;5.17;;;1.70;;
16705;SDS011;8469;60.136;15.180;2024-03-07T08:23:31;5.00;;;1.60;;
16705;SDS011;8469;60.136;15.180;2024-03-07T08:25:58;3.22;;;1.65;;
16705;SDS011;8469;60.136;15.180;2024-03-07T08:28:25;2.83;;;1.40;;
16705;SDS011;8469;60.136;15.180;2024-03-07T08:30:53;1.70;;;1.42;;
16705;SDS011;8469;60.136;15.180;2024-03-07T08:33:21;2.70;;;1.40;;
16705;SDS011;8469;60.136;15.180;2024-03-07T08:35:48;7.10;;;1.85;;
16705;SDS011;8469;60.136;15.180;2024-03-07T08:38:16;7.10;;;1.98;;
16705;SDS011;8469;60.136;15.180;2024-03-07T08:40:44;4.28;;;1.45;;
16705;SDS011;8469;60.136;15.180;2024-03-07T08:43:11;6.80;;;1.42;;
16705;SDS011;8469;60.136;15.180;2024-03-07T08:45:38;3.40;;;1.60;;
16705;SDS011;8469;60.136;15.180;2024-03-07T08:48:06;6.20;;;1.70;;
16705;SDS011;8469;60.136;15.180;2024-03-07T08:50:36;2.10;;;1.40;;
16705;SDS011;8469;60.136;15.180;2024-03-07T08:53:03;2.90;;;1.40;;
16705;SDS011;8469;60.136;15.180;2024-03-07T08:55:31;4.00;;;1.57;;
16705;SDS011;8469;60.136;15.180;2024-03-07T08:57:58;2.15;;;1.45;;
16705;SDS011;8469;60.136;15.180;2024-03-07T09:00:26;11.78;;;1.60;;
16705;SDS011;8469;60.136;15.180;2024-03-07T09:02:57;3.08;;;1.30;;
16705;SDS011;8469;60.136;15.180;2024-03-07T09:05:25;1.43;;;1.30;;
16705;SDS011;8469;60.136;15.180;2024-03-07T09:07:54;2.80;;;1.65;;
16705;SDS011;8469;60.136;15.180;2024-03-07T09:10:24;8.47;;;2.13;;
16705;SDS011;8469;60.136;15.180;2024-03-07T09:12:55;9.85;;;1.90;;
16705;SDS011;8469;60.136;15.180;2024-03-07T09:15:23;17.87;;;2.58;;
16705;SDS011;8469;60.136;15.180;2024-03-07T09:17:51;9.00;;;1.67;;
16705;SDS011;8469;60.136;15.180;2024-03-07T09:20:18;4.00;;;1.90;;
16705;SDS011;8469;60.136;15.180;2024-03-07T09:22:46;6.83;;;1.70;;
16705;SDS011;8469;60.136;15.180;2024-03-07T09:25:17;3.47;;;1.65;;
16705;SDS011;8469;60.136;15.180;2024-03-07T09:27:45;4.33;;;1.40;;
16705;SDS011;8469;60.136;15.180;2024-03-07T09:30:13;2.33;;;1.30;;
16705;SDS011;8469;60.136;15.180;2024-03-07T09:32:45;1.95;;;1.42;;
16705;SDS011;8469;60.136;15.180;2024-03-07T09:35:12;4.75;;;1.50;;
16705;SDS011;8469;60.136;15.180;2024-03-07T09:37:40;6.45;;;1.55;;
16705;SDS011;8469;60.136;15.180;2024-03-07T09:40:09;7.60;;;1.57;;
16705;SDS011;8469;60.136;15.180;2024-03-07T09:42:47;8.00;;;1.70;;
16705;SDS011;8469;60.136;15.180;2024-03-07T09:45:15;6.93;;;1.90;;
16705;SDS011;8469;60.136;15.180;2024-03-07T09:47:44;4.75;;;1.30;;
16705;SDS011;8469;60.136;15.180;2024-03-07T09:50:13;1.80;;;1.40;;
16705;SDS011;8469;60.136;15.180;2024-03-07T09:52:41;7.62;;;1.50;;
16705;SDS011;8469;60.136;15.180;2024-03-07T09:55:08;8.78;;;1.50;;
16705;SDS011;8469;60.136;15.180;2024-03-07T09:57:36;4.42;;;1.32;;
16705;SDS011;8469;60.136;15.180;2024-03-07T10:00:05;1.62;;;1.30;;
16705;SDS011;8469;60.136;15.180;2024-03-07T10:02:35;7.75;;;1.60;;
16705;SDS011;8469;60.136;15.180;2024-03-07T10:05:03;2.27;;;1.07;;
16705;SDS011;8469;60.136;15.180;2024-03-07T10:07:32;2.52;;;1.05;;
16705;SDS011;8469;60.136;15.180;2024-03-07T10:10:01;1.80;;;1.12;;
16705;SDS011;8469;60.136;15.180;2024-03-07T10:12:33;2.00;;;1.10;;
16705;SDS011;8469;60.136;15.180;2024-03-07T10:15:04;3.12;;;1.22;;
16705;SDS011;8469;60.136;15.180;2024-03-07T10:17:32;1.45;;;1.15;;
16705;SDS011;8469;60.136;15.180;2024-03-07T10:19:59;2.52;;;1.00;;
16705;SDS011;8469;60.136;15.180;2024-03-07T10:22:27;2.80;;;1.15;;
16705;SDS011;8469;60.136;15.180;2024-03-07T10:24:56;3.52;;;1.10;;
16705;SDS011;8469;60.136;15.180;2024-03-07T10:27:25;5.00;;;1.35;;
16705;SDS011;8469;60.136;15.180;2024-03-07T10:29:52;7.40;;;1.40;;
16705;SDS011;8469;60.136;15.180;2024-03-07T10:32:20;9.50;;;1.30;;
16705;SDS011;8469;60.136;15.180;2024-03-07T10:34:51;9.18;;;1.20;;
16705;SDS011;8469;60.136;15.180;2024-03-07T10:37:19;4.37;;;1.17;;
16705;SDS011;8469;60.136;15.180;2024-03-07T10:39:51;16.60;;;1.50;;
16705;SDS011;8469;60.136;15.180;2024-03-07T10:42:21;15.80;;;1.40;;
16705;SDS011;8469;60.136;15.180;2024-03-07T10:44:50;4.90;;;1.47;;
16705;SDS011;8469;60.136;15.180;2024-03-07T10:47:19;6.13;;;1.20;;
16705;SDS011;8469;60.136;15.180;2024-03-07T10:50:52;5.92;;;1.45;;
16705;SDS011;8469;60.136;15.180;2024-03-07T10:53:15;9.33;;;1.30;;
16705;SDS011;8469;60.136;15.180;2024-03-07T10:57:49;4.67;;;1.50;;
16705;SDS011;8469;60.136;15.180;2024-03-07T11:00:17;7.75;;;1.17;;
16705;SDS011;8469;60.136;15.180;2024-03-07T11:02:58;5.30;;;1.30;;
16705;SDS011;8469;60.136;15.180;2024-03-07T11:05:26;5.60;;;0.90;;
16705;SDS011;8469;60.136;15.180;2024-03-07T11:07:56;5.70;;;1.30;;
16705;SDS011;8469;60.136;15.180;2024-03-07T11:10:24;1.93;;;1.03;;
16705;SDS011;8469;60.136;15.180;2024-03-07T11:12:51;1.00;;;0.90;;
16705;SDS011;8469;60.136;15.180;2024-03-07T11:15:20;2.50;;;1.02;;
16705;SDS011;8469;60.136;15.180;2024-03-07T11:17:49;2.58;;;1.10;;
16705;SDS011;8469;60.136;15.180;2024-03-07T11:20:22;4.03;;;1.07;;
16705;SDS011;8469;60.136;15.180;2024-03-07T11:22:50;11.38;;;1.60;;
16705;SDS011;8469;60.136;15.180;2024-03-07T11:25:20;8.70;;;1.47;;
16705;SDS011;8469;60.136;15.180;2024-03-07T11:27:52;3.02;;;0.90;;
16705;SDS011;8469;60.136;15.180;2024-03-07T11:30:20;3.95;;;1.17;;
16705;SDS011;8469;60.136;15.180;2024-03-07T11:32:54;4.12;;;0.90;;
16705;SDS011;8469;60.136;15.180;2024-03-07T11:35:32;4.45;;;0.88;;
16705;SDS011;8469;60.136;15.180;2024-03-07T11:38:06;1.90;;;0.90;;
16705;SDS011;8469;60.136;15.180;2024-03-07T11:43:06;2.13;;;1.10;;
16705;SDS011;8469;60.136;15.180;2024-03-07T11:45:35;1.17;;;1.05;;
16705;SDS011;8469;60.136;15.180;2024-03-07T11:48:11;4.80;;;0.90;;
16705;SDS011;8469;60.136;15.180;2024-03-07T11:50:39;6.23;;;1.40;;
16705;SDS011;8469;60.136;15.180;2024-03-07T11:53:07;7.43;;;1.30;;
16705;SDS011;8469;60.136;15.180;2024-03-07T11:55:34;8.80;;;1.40;;
16705;SDS011;8469;60.136;15.180;2024-03-07T11:58:10;7.47;;;1.62;;
16705;SDS011;8469;60.136;15.180;2024-03-07T12:00:42;6.55;;;1.37;;
16705;SDS011;8469;60.136;15.180;2024-03-07T12:03:12;4.10;;;1.20;;
16705;SDS011;8469;60.136;15.180;2024-03-07T12:05:47;5.70;;;1.90;;
16705;SDS011;8469;60.136;15.180;2024-03-07T12:08:18;2.40;;;1.07;;
16705;SDS011;8469;60.136;15.180;2024-03-07T12:10:47;8.85;;;1.37;;
16705;SDS011;8469;60.136;15.180;2024-03-07T12:13:16;4.17;;;1.70;;
16705;SDS011;8469;60.136;15.180;2024-03-07T12:15:45;8.08;;;1.35;;
16705;SDS011;8469;60.136;15.180;2024-03-07T12:18:13;6.03;;;1.30;;
16705;SDS011;8469;60.136;15.180;2024-03-07T12:20:41;1.97;;;1.10;;
16705;SDS011;8469;60.136;15.180;2024-03-07T12:23:10;5.33;;;1.50;;
16705;SDS011;8469;60.136;15.180;2024-03-07T12:25:38;8.35;;;1.50;;
16705;SDS011;8469;60.136;15.180;2024-03-07T12:28:10;14.20;;;1.60;;
16705;SDS011;8469;60.136;15.180;2024-03-07T12:30:47;9.60;;;1.40;;
16705;SDS011;8469;60.136;15.180;2024-03-07T12:33:08;7.80;;;1.10;;
16705;SDS011;8469;60.136;15.180;2024-03-07T12:35:35;7.05;;;1.30;;
16705;SDS011;8469;60.136;15.180;2024-03-07T12:38:02;6.10;;;1.00;;
16705;SDS011;8469;60.136;15.180;2024-03-07T12:40:31;6.35;;;1.40;;
16705;SDS011;8469;60.136;15.180;2024-03-07T12:42:59;5.93;;;1.00;;
16705;SDS011;8469;60.136;15.180;2024-03-07T12:45:28;7.35;;;1.35;;
16705;SDS011;8469;60.136;15.180;2024-03-07T12:47:55;9.70;;;1.73;;
16705;SDS011;8469;60.136;15.180;2024-03-07T12:50:24;3.90;;;1.40;;
16705;SDS011;8469;60.136;15.180;2024-03-07T12:52:52;8.63;;;1.25;;
16705;SDS011;8469;60.136;15.180;2024-03-07T12:55:20;7.08;;;1.60;;
16705;SDS011;8469;60.136;15.180;2024-03-07T12:57:50;5.65;;;1.22;;
16705;SDS011;8469;60.136;15.180;2024-03-07T13:00:17;1.92;;;1.20;;
16705;SDS011;8469;60.136;15.180;2024-03-07T13:02:51;3.67;;;1.00;;
16705;SDS011;8469;60.136;15.180;2024-03-07T13:05:15;2.98;;;1.07;;
16705;SDS011;8469;60.136;15.180;2024-03-07T13:07:47;3.58;;;1.30;;
16705;SDS011;8469;60.136;15.180;2024-03-07T13:10:15;7.65;;;1.20;;
16705;SDS011;8469;60.136;15.180;2024-03-07T13:12:44;1.70;;;1.10;;
16705;SDS011;8469;60.136;15.180;2024-03-07T13:15:18;6.30;;;1.12;;
16705;SDS011;8469;60.136;15.180;2024-03-07T13:17:47;4.62;;;1.40;;
16705;SDS011;8469;60.136;15.180;2024-03-07T13:20:16;8.28;;;1.20;;
16705;SDS011;8469;60.136;15.180;2024-03-07T13:22:45;4.22;;;1.40;;
16705;SDS011;8469;60.136;15.180;2024-03-07T13:25:17;13.25;;;1.62;;
16705;SDS011;8469;60.136;15.180;2024-03-07T13:27:56;9.58;;;1.27;;
16705;SDS011;8469;60.136;15.180;2024-03-07T13:30:23;6.35;;;1.30;;
16705;SDS011;8469;60.136;15.180;2024-03-07T13:32:58;15.70;;;1.62;;
16705;SDS011;8469;60.136;15.180;2024-03-07T13:35:26;1.85;;;0.70;;
16705;SDS011;8469;60.136;15.180;2024-03-07T13:37:54;1.77;;;0.90;;
16705;SDS011;8469;60.136;15.180;2024-03-07T13:40:29;3.40;;;1.35;;
16705;SDS011;8469;60.136;15.180;2024-03-07T13:42:57;5.95;;;1.02;;
16705;SDS011;8469;60.136;15.180;2024-03-07T13:45:27;17.73;;;1.40;;
16705;SDS011;8469;60.136;15.180;2024-03-07T13:47:54;45.85;;;2.55;;
16705;SDS011;8469;60.136;15.180;2024-03-07T13:50:25;9.50;;;1.25;;
16705;SDS011;8469;60.136;15.180;2024-03-07T13:52:55;29.80;;;2.12;;
16705;SDS011;8469;60.136;15.180;2024-03-07T13:55:48;10.05;;;1.50;;
16705;SDS011;8469;60.136;15.180;2024-03-07T13:58:24;28.02;;;3.17;;
16705;SDS011;8469;60.136;15.180;2024-03-07T14:00:55;22.73;;;1.98;;
16705;SDS011;8469;60.136;15.180;2024-03-07T14:06:07;33.50;;;2.58;;
16705;SDS011;8469;60.136;15.180;2024-03-07T14:14:20;48.98;;;3.05;;
16705;SDS011;8469;60.136;15.180;2024-03-07T14:17:13;42.23;;;2.65;;
16705;SDS011;8469;60.136;15.180;2024-03-07T14:19:43;57.70;;;3.05;;
16705;SDS011;8469;60.136;15.180;2024-03-07T14:22:33;35.45;;;2.80;;
16705;SDS011;8469;60.136;15.180;2024-03-07T14:33:12;35.73;;;2.10;;
16705;SDS011;8469;60.136;15.180;2024-03-07T14:35:59;18.10;;;1.80;;
16705;SDS011;8469;60.136;15.180;2024-03-07T14:38:29;51.37;;;3.40;;
16705;SDS011;8469;60.136;15.180;2024-03-07T14:40:56;16.42;;;1.87;;
16705;SDS011;8469;60.136;15.180;2024-03-07T14:43:24;10.30;;;1.30;;
16705;SDS011;8469;60.136;15.180;2024-03-07T14:45:51;49.38;;;2.72;;
16705;SDS011;8469;60.136;15.180;2024-03-07T14:48:20;26.75;;;1.77;;
16705;SDS011;8469;60.136;15.180;2024-03-07T14:50:48;10.40;;;1.15;;
16705;SDS011;8469;60.136;15.180;2024-03-07T14:53:16;6.35;;;1.00;;
16705;SDS011;8469;60.136;15.180;2024-03-07T14:55:46;3.52;;;0.93;;
16705;SDS011;8469;60.136;15.180;2024-03-07T14:58:15;11.35;;;1.30;;
16705;SDS011;8469;60.136;15.180;2024-03-07T15:00:42;7.10;;;0.95;;
16705;SDS011;8469;60.136;15.180;2024-03-07T15:03:13;18.60;;;1.55;;
16705;SDS011;8469;60.136;15.180;2024-03-07T15:05:43;5.25;;;1.00;;
16705;SDS011;8469;60.136;15.180;2024-03-07T15:08:14;20.52;;;1.75;;
16705;SDS011;8469;60.136;15.180;2024-03-07T15:10:48;6.67;;;1.40;;
16705;SDS011;8469;60.136;15.180;2024-03-07T15:13:15;10.90;;;1.35;;
16705;SDS011;8469;60.136;15.180;2024-03-07T15:15:46;16.27;;;1.62;;
16705;SDS011;8469;60.136;15.180;2024-03-07T15:18:13;4.70;;;1.37;;